createdAt,value
2022-10-10T00:01:36.558Z,101.68
2022-10-10T00:04:05.823Z,100.00
2022-10-10T00:06:33.536Z,95.82
2022-10-10T00:09:01.854Z,87.55
2022-10-10T00:11:29.138Z,87.40
2022-10-10T00:13:56.124Z,82.38
2022-10-10T00:16:23.219Z,87.72
2022-10-10T00:18:50.355Z,101.13
2022-10-10T00:21:17.944Z,104.40
2022-10-10T00:23:44.880Z,168.20
2022-10-10T00:26:16.302Z,91.70
2022-10-10T00:28:45.748Z,97.13
2022-10-10T00:31:12.713Z,102.82
2022-10-10T00:33:39.932Z,84.60
2022-10-10T00:36:07.630Z,76.68
2022-10-10T00:38:35.380Z,68.32
2022-10-10T00:41:03.065Z,77.60
2022-10-10T00:43:30.144Z,71.00
2022-10-10T00:45:57.501Z,71.20
2022-10-10T00:48:39.898Z,74.63
2022-10-10T00:51:11.915Z,69.20
2022-10-10T00:54:05.873Z,59.25
2022-10-10T00:56:45.865Z,65.35
2022-10-10T00:59:13.017Z,62.47
2022-10-10T01:01:41.415Z,52.72
2022-10-10T01:04:32.592Z,54.00
2022-10-10T01:07:00.591Z,50.53
2022-10-10T01:09:29.264Z,55.15
2022-10-10T01:12:08.853Z,146.18
2022-10-10T01:14:47.881Z,148.50
2022-10-10T01:17:14.743Z,79.85
2022-10-10T01:20:03.313Z,86.35
2022-10-10T01:22:57.014Z,103.63
2022-10-10T01:25:51.322Z,71.22
2022-10-10T01:28:43.237Z,49.13
2022-10-10T01:31:14.043Z,49.88
2022-10-10T01:36:33.135Z,42.85
2022-10-10T01:39:27.862Z,40.73
2022-10-10T01:42:08.373Z,36.25
2022-10-10T01:44:35.332Z,44.22
2022-10-10T01:47:02.326Z,50.67
2022-10-10T01:49:33.076Z,53.90
2022-10-10T01:52:32.525Z,43.38
2022-10-10T01:55:15.118Z,54.28
2022-10-10T01:57:52.161Z,95.55
2022-10-10T02:00:19.827Z,88.13
2022-10-10T02:03:02.824Z,68.82
2022-10-10T02:05:49.711Z,67.28
2022-10-10T02:08:22.690Z,124.03
2022-10-10T02:10:52.997Z,108.78
2022-10-10T02:13:24.217Z,113.28
2022-10-10T02:15:58.308Z,110.38
2022-10-10T02:18:29.352Z,112.63
2022-10-10T02:20:56.529Z,166.80
2022-10-10T02:23:24.012Z,156.38
2022-10-10T02:25:54.728Z,166.50
2022-10-10T02:28:30.196Z,136.55
2022-10-10T02:31:01.481Z,167.95
2022-10-10T02:33:41.979Z,192.25
2022-10-10T02:36:10.073Z,182.27
2022-10-10T02:38:38.316Z,109.97
2022-10-10T02:41:07.502Z,173.38
2022-10-10T02:43:35.653Z,121.22
2022-10-10T02:46:06.479Z,153.85
2022-10-10T02:51:00.521Z,159.55
2022-10-10T02:53:28.328Z,198.10
2022-10-10T02:55:55.274Z,141.27
2022-10-10T02:58:22.256Z,212.20
2022-10-10T03:00:49.316Z,103.63
2022-10-10T03:03:16.228Z,157.88
2022-10-10T03:05:43.119Z,185.75
2022-10-10T03:08:11.863Z,103.32
2022-10-10T03:10:39.393Z,130.43
2022-10-10T03:13:06.436Z,157.88
2022-10-10T03:15:33.361Z,126.78
2022-10-10T03:18:00.303Z,220.35
2022-10-10T03:20:27.255Z,152.60
2022-10-10T03:22:54.188Z,241.68
2022-10-10T03:25:21.105Z,157.48
2022-10-10T03:27:48.550Z,95.15
2022-10-10T03:30:15.894Z,137.30
2022-10-10T03:32:42.823Z,170.48
2022-10-10T03:35:11.174Z,128.43
2022-10-10T03:37:38.092Z,169.20
2022-10-10T03:40:05.362Z,108.18
2022-10-10T03:42:32.300Z,161.68
2022-10-10T03:44:59.245Z,168.90
2022-10-10T03:47:26.246Z,142.27
2022-10-10T03:49:53.067Z,177.18
2022-10-10T03:52:20.018Z,252.18
2022-10-10T03:54:47.297Z,235.82
2022-10-10T03:57:14.257Z,132.80
2022-10-10T03:59:41.148Z,104.95
2022-10-10T04:02:08.550Z,183.85
2022-10-10T04:04:35.709Z,159.25
2022-10-10T04:07:02.686Z,195.80
2022-10-10T04:09:30.098Z,123.68
2022-10-10T04:11:57.286Z,97.28
2022-10-10T04:14:24.389Z,110.63
2022-10-10T04:16:51.354Z,91.53
2022-10-10T04:19:18.565Z,77.90
2022-10-10T04:21:45.533Z,74.68
2022-10-10T04:24:12.654Z,141.15
2022-10-10T04:26:39.618Z,119.53
2022-10-10T04:29:06.607Z,71.40
2022-10-10T04:31:33.994Z,85.13
2022-10-10T04:34:00.933Z,118.10
2022-10-10T04:36:28.169Z,107.15
2022-10-10T04:39:05.439Z,50.72
2022-10-10T04:41:32.405Z,48.75
2022-10-10T04:43:59.349Z,41.00
2022-10-10T04:46:26.399Z,36.78
2022-10-10T04:48:53.351Z,31.67
2022-10-10T04:51:20.228Z,35.13
2022-10-10T04:53:50.415Z,27.20
2022-10-10T04:56:17.805Z,39.30
2022-10-10T04:58:44.865Z,30.02
2022-10-10T05:01:11.850Z,39.17
2022-10-10T05:03:38.818Z,33.15
2022-10-10T05:06:06.314Z,39.47
2022-10-10T05:08:33.521Z,41.20
2022-10-10T05:11:00.775Z,48.53
2022-10-10T05:13:27.961Z,83.50
2022-10-10T05:15:54.915Z,78.80
2022-10-10T05:18:22.583Z,148.00
2022-10-10T05:20:49.435Z,107.13
2022-10-10T05:23:16.951Z,146.32
2022-10-10T05:25:45.703Z,80.68
2022-10-10T05:28:12.865Z,120.53
2022-10-10T05:30:39.872Z,196.18
2022-10-10T05:33:06.909Z,235.95
2022-10-10T05:35:33.929Z,191.27
2022-10-10T05:38:01.082Z,239.27
2022-10-10T05:40:28.506Z,102.97
2022-10-10T05:42:55.541Z,111.25
2022-10-10T05:45:22.548Z,112.20
2022-10-10T05:47:49.553Z,139.05
2022-10-10T05:50:30.028Z,55.53
2022-10-10T05:52:57.419Z,99.05
2022-10-10T05:55:24.615Z,155.52
2022-10-10T05:57:51.593Z,132.50
2022-10-10T06:00:18.818Z,112.93
2022-10-10T06:02:46.278Z,98.43
2022-10-10T06:05:13.214Z,104.30
2022-10-10T06:08:02.432Z,139.45
2022-10-10T06:10:27.133Z,116.82
2022-10-10T06:12:54.306Z,137.85
2022-10-10T06:15:21.643Z,104.32
2022-10-10T06:17:48.593Z,110.38
2022-10-10T06:20:15.779Z,103.78
2022-10-10T06:22:42.690Z,78.95
2022-10-10T06:25:29.042Z,61.70
2022-10-10T06:27:57.186Z,64.50
2022-10-10T06:30:24.289Z,56.78
2022-10-10T06:32:55.806Z,45.28
2022-10-10T06:35:23.679Z,54.67
2022-10-10T06:37:50.571Z,62.42
2022-10-10T06:40:17.981Z,38.40
2022-10-10T06:42:44.937Z,41.47
2022-10-10T06:45:11.869Z,46.67
2022-10-10T06:47:40.107Z,33.40
2022-10-10T06:50:07.295Z,41.38
2022-10-10T06:52:34.274Z,48.53
2022-10-10T06:55:01.189Z,36.47
2022-10-10T06:57:28.757Z,32.85
2022-10-10T06:59:55.798Z,37.65
2022-10-10T07:02:23.849Z,44.30
2022-10-10T07:04:51.212Z,37.25
2022-10-10T07:07:18.248Z,40.45
2022-10-10T07:09:45.178Z,34.15
2022-10-10T07:12:12.508Z,32.45
2022-10-10T07:14:39.468Z,41.30
2022-10-10T07:17:06.382Z,46.33
2022-10-10T07:19:33.450Z,47.97
2022-10-10T07:22:00.407Z,45.70
2022-10-10T07:24:27.364Z,41.85
2022-10-10T07:27:03.479Z,49.72
2022-10-10T07:29:33.421Z,49.70
2022-10-10T07:32:00.588Z,53.28
2022-10-10T07:34:27.795Z,57.95
2022-10-10T07:36:54.748Z,57.22
2022-10-10T07:39:25.559Z,54.67
2022-10-10T07:44:20.330Z,43.13
2022-10-10T07:46:47.787Z,44.90
2022-10-10T07:49:14.669Z,41.60
2022-10-10T07:51:41.849Z,39.47
2022-10-10T07:54:10.757Z,37.08
2022-10-10T07:56:37.753Z,35.60
2022-10-10T07:59:04.726Z,36.47
2022-10-10T08:01:31.750Z,38.15
2022-10-10T08:03:58.984Z,33.00
2022-10-10T08:06:26.161Z,32.10
2022-10-10T08:08:53.238Z,35.03
2022-10-10T08:11:22.169Z,34.08
2022-10-10T08:13:50.255Z,32.97
2022-10-10T08:16:18.173Z,29.45
2022-10-10T08:18:45.373Z,31.33
2022-10-10T08:21:14.718Z,32.58
2022-10-10T08:23:42.170Z,30.35
2022-10-10T08:26:11.144Z,26.38
2022-10-10T08:28:38.946Z,28.00
2022-10-10T08:31:08.138Z,24.30
2022-10-10T08:33:36.084Z,22.33
2022-10-10T08:36:14.927Z,23.85
2022-10-10T08:38:42.589Z,17.00
2022-10-10T08:41:24.684Z,22.27
2022-10-10T08:43:57.074Z,16.42
2022-10-10T08:47:15.623Z,20.50
2022-10-10T08:50:07.150Z,16.65
2022-10-10T08:52:53.987Z,17.55
2022-10-10T08:55:44.216Z,17.42
2022-10-10T08:58:24.499Z,15.13
2022-10-10T09:00:57.265Z,14.77
2022-10-10T09:03:42.502Z,12.90
2022-10-10T09:06:37.495Z,14.10
2022-10-10T09:09:10.587Z,15.07
2022-10-10T09:12:07.096Z,13.98
2022-10-10T09:14:45.074Z,13.88
2022-10-10T09:17:34.924Z,10.25
2022-10-10T09:20:07.996Z,9.88
2022-10-10T09:22:52.292Z,11.38
2022-10-10T09:25:33.089Z,11.55
2022-10-10T09:28:19.639Z,11.20
2022-10-10T09:30:53.067Z,13.05
2022-10-10T09:33:28.767Z,13.88
2022-10-10T09:35:59.049Z,12.00
2022-10-10T09:38:37.898Z,11.48
2022-10-10T09:41:39.690Z,10.55
2022-10-10T09:44:11.852Z,13.35
2022-10-10T09:46:39.064Z,12.02
2022-10-10T09:49:06.332Z,10.50
2022-10-10T09:51:34.340Z,9.57
2022-10-10T09:54:01.736Z,10.73
2022-10-10T09:56:35.235Z,13.75
2022-10-10T09:59:02.280Z,8.27
2022-10-10T10:01:33.264Z,7.88
2022-10-10T10:04:30.924Z,8.50
2022-10-10T10:07:19.587Z,10.25
2022-10-10T10:09:59.534Z,24.77
2022-10-10T10:12:37.587Z,5.10
2022-10-10T10:15:07.580Z,8.13
2022-10-10T10:17:34.504Z,6.70
2022-10-10T10:20:01.479Z,11.73
2022-10-10T10:22:54.719Z,6.10
2022-10-10T10:25:39.134Z,9.38
2022-10-10T10:28:12.241Z,10.52
2022-10-10T10:30:40.557Z,4.90
2022-10-10T10:33:33.557Z,5.65
2022-10-10T10:36:19.456Z,5.45
2022-10-10T10:39:05.177Z,6.85
2022-10-10T10:41:38.237Z,6.80
2022-10-10T10:44:05.135Z,5.40
2022-10-10T10:46:38.132Z,6.55
2022-10-10T10:49:04.998Z,4.18
2022-10-10T10:51:41.192Z,6.85
2022-10-10T10:54:25.511Z,5.43
2022-10-10T10:57:28.817Z,7.20
2022-10-10T11:00:22.275Z,6.60
2022-10-10T11:03:14.865Z,5.45
2022-10-10T11:06:10.592Z,6.53
2022-10-10T11:09:45.050Z,3.73
2022-10-10T11:12:14.166Z,7.90
2022-10-10T11:14:51.407Z,4.90
2022-10-10T11:17:26.909Z,5.13
2022-10-10T11:20:17.198Z,7.05
2022-10-10T11:22:52.519Z,6.97
2022-10-10T11:25:47.827Z,6.32
2022-10-10T11:28:21.386Z,6.68
2022-10-10T11:30:58.350Z,5.63
2022-10-10T11:33:39.124Z,8.55
2022-10-10T11:36:16.144Z,7.03
2022-10-10T11:38:54.952Z,6.00
2022-10-10T11:41:27.435Z,6.55
2022-10-10T11:44:04.989Z,6.32
2022-10-10T11:46:54.783Z,5.95
2022-10-10T11:49:37.132Z,9.10
2022-10-10T11:52:35.133Z,6.20
2022-10-10T11:55:24.745Z,8.02
2022-10-10T11:58:39.339Z,8.93
2022-10-10T12:01:19.402Z,5.72
2022-10-10T12:03:46.414Z,6.37
2022-10-10T12:06:28.206Z,7.38
2022-10-10T12:09:04.598Z,7.68
2022-10-10T12:11:37.456Z,4.93
2022-10-10T12:14:09.408Z,4.30
2022-10-10T12:16:38.114Z,6.38
2022-10-10T12:19:09.316Z,5.15
2022-10-10T12:21:59.743Z,6.60
2022-10-10T12:24:29.866Z,5.10
2022-10-10T12:26:56.801Z,6.13
2022-10-10T12:30:08.733Z,3.88
2022-10-10T12:32:46.107Z,5.03
2022-10-10T12:35:42.363Z,4.82
2022-10-10T12:38:11.476Z,3.38
2022-10-10T12:41:05.205Z,5.38
2022-10-10T12:43:48.417Z,4.50
2022-10-10T12:46:21.073Z,5.85
2022-10-10T12:49:16.951Z,5.25
2022-10-10T12:51:44.943Z,5.30
2022-10-10T12:54:28.127Z,6.03
2022-10-10T12:57:07.949Z,4.57
2022-10-10T12:59:37.227Z,7.60
2022-10-10T13:02:24.693Z,3.65
2022-10-10T13:04:56.421Z,5.30
2022-10-10T13:07:24.998Z,4.93
2022-10-10T13:09:55.054Z,5.35
2022-10-10T13:12:27.908Z,4.40
2022-10-10T13:14:55.818Z,5.10
2022-10-10T13:17:24.548Z,4.50
2022-10-10T13:19:52.973Z,5.90
2022-10-10T13:22:21.044Z,8.35
2022-10-10T13:24:49.536Z,2.92
2022-10-10T13:27:26.802Z,4.05
2022-10-10T13:29:55.461Z,6.95
2022-10-10T13:32:29.577Z,3.00
2022-10-10T13:35:06.613Z,3.60
2022-10-10T13:37:34.535Z,4.95
2022-10-10T13:40:01.974Z,4.90
2022-10-10T13:42:36.170Z,2.70
2022-10-10T13:45:29.204Z,5.05
2022-10-10T13:48:03.629Z,7.00
2022-10-10T13:50:53.409Z,2.35
2022-10-10T13:53:26.865Z,5.53
2022-10-10T13:56:02.706Z,3.25
2022-10-10T13:58:52.796Z,5.57
2022-10-10T14:01:34.992Z,2.77
2022-10-10T14:04:15.558Z,5.90
2022-10-10T14:06:59.746Z,8.43
2022-10-10T14:09:41.824Z,4.47
2022-10-10T14:12:17.574Z,3.83
2022-10-10T14:14:48.307Z,2.42
2022-10-10T14:17:16.204Z,4.22
2022-10-10T14:19:45.408Z,2.33
2022-10-10T14:22:12.526Z,3.63
2022-10-10T14:24:39.508Z,5.22
2022-10-10T14:27:20.722Z,4.47
2022-10-10T14:29:48.159Z,4.68
2022-10-10T14:32:16.181Z,4.72
2022-10-10T14:34:43.448Z,6.43
2022-10-10T14:37:29.382Z,4.13
2022-10-10T14:39:56.819Z,4.03
2022-10-10T14:42:25.610Z,3.45
2022-10-10T14:44:52.773Z,3.67
2022-10-10T14:47:22.350Z,3.72
2022-10-10T14:49:49.717Z,4.72
2022-10-10T14:52:16.707Z,2.95
2022-10-10T14:54:43.700Z,4.65
2022-10-10T14:57:13.488Z,3.67
2022-10-10T14:59:48.426Z,5.75
2022-10-10T15:02:21.585Z,5.00
2022-10-10T15:04:49.274Z,3.95
2022-10-10T15:07:16.718Z,5.72
2022-10-10T15:10:27.477Z,6.90
2022-10-10T15:12:32.985Z,7.72
2022-10-10T15:14:59.930Z,7.97
2022-10-10T15:17:27.594Z,6.35
2022-10-10T15:19:54.534Z,6.85
2022-10-10T15:22:21.484Z,7.93
2022-10-10T15:24:48.460Z,6.80
2022-10-10T15:27:15.484Z,7.93
2022-10-10T15:29:42.488Z,10.52
2022-10-10T15:32:09.908Z,8.18
2022-10-10T15:34:37.012Z,7.18
2022-10-10T15:37:04.490Z,7.80
2022-10-10T15:39:31.766Z,6.05
2022-10-10T15:42:06.998Z,7.65
2022-10-10T15:44:36.906Z,7.75
2022-10-10T15:47:04.032Z,7.43
2022-10-10T15:49:30.977Z,8.88
2022-10-10T15:51:57.935Z,6.97
2022-10-10T15:54:24.933Z,6.88
2022-10-10T15:56:51.960Z,7.82
2022-10-10T16:01:45.762Z,7.60
2022-10-10T16:04:12.876Z,9.88
2022-10-10T16:06:39.796Z,10.02
2022-10-10T16:09:27.558Z,7.90
2022-10-10T16:11:53.787Z,6.53
2022-10-10T16:14:20.732Z,7.93
2022-10-10T16:16:47.726Z,12.68
2022-10-10T16:19:14.903Z,7.82
2022-10-10T16:21:42.003Z,8.18
2022-10-10T16:24:10.163Z,10.30
2022-10-10T16:26:38.338Z,10.30
2022-10-10T16:29:07.206Z,10.70
2022-10-10T16:31:39.427Z,9.23
2022-10-10T16:34:07.691Z,14.02
2022-10-10T16:36:37.392Z,12.02
2022-10-10T16:39:05.378Z,10.25
2022-10-10T16:41:49.539Z,12.40
2022-10-10T16:44:17.891Z,11.43
2022-10-10T16:46:45.122Z,14.00
2022-10-10T16:49:20.957Z,40.22
2022-10-10T16:51:48.451Z,23.02
2022-10-10T16:54:15.947Z,29.63
2022-10-10T16:56:42.895Z,20.92
2022-10-10T16:59:09.841Z,26.42
2022-10-10T17:01:37.060Z,24.20
2022-10-10T17:04:04.747Z,23.02
2022-10-10T17:06:38.048Z,20.15
2022-10-10T17:09:07.695Z,14.18
2022-10-10T17:11:35.332Z,16.58
2022-10-10T17:14:02.518Z,14.25
2022-10-10T17:19:17.749Z,13.23
2022-10-10T17:21:44.667Z,18.05
2022-10-10T17:24:11.649Z,21.17
2022-10-10T17:26:38.687Z,22.38
2022-10-10T17:29:05.859Z,25.25
2022-10-10T17:31:33.033Z,33.40
2022-10-10T17:34:00.225Z,30.65
2022-10-10T17:36:28.447Z,43.42
2022-10-10T17:39:02.310Z,26.92
2022-10-10T17:41:29.798Z,31.13
2022-10-10T17:43:56.970Z,32.50
2022-10-10T17:46:36.585Z,39.78
2022-10-10T17:49:06.845Z,39.17
2022-10-10T17:51:35.569Z,35.60
2022-10-10T17:54:03.726Z,38.78
2022-10-10T17:56:31.706Z,36.00
2022-10-10T17:59:01.783Z,50.00
2022-10-10T18:01:31.118Z,40.50
2022-10-10T18:03:58.860Z,30.05
2022-10-10T18:06:26.584Z,24.58
2022-10-10T18:08:54.511Z,30.08
2022-10-10T18:11:24.374Z,28.70
2022-10-10T18:13:52.415Z,29.88
2022-10-10T18:16:22.833Z,35.67
2022-10-10T18:18:51.910Z,29.70
2022-10-10T18:21:21.535Z,28.88
2022-10-10T18:23:49.123Z,37.78
2022-10-10T18:26:19.601Z,37.92
2022-10-10T18:28:47.097Z,33.63
2022-10-10T18:31:20.193Z,21.75
2022-10-10T18:33:47.698Z,23.75
2022-10-10T18:36:17.624Z,25.55
2022-10-10T18:38:44.563Z,23.53
2022-10-10T18:41:18.480Z,27.02
2022-10-10T18:43:46.491Z,24.40
2022-10-10T18:46:16.207Z,23.92
2022-10-10T18:48:44.086Z,23.65
2022-10-10T18:51:18.907Z,26.20
2022-10-10T18:53:47.081Z,23.67
2022-10-10T18:56:17.071Z,24.90
2022-10-10T18:58:43.994Z,26.52
2022-10-10T19:01:12.862Z,23.98
2022-10-10T19:03:40.990Z,22.83
2022-10-10T19:06:11.037Z,24.23
2022-10-10T19:08:38.191Z,21.27
2022-10-10T19:11:07.331Z,25.75
2022-10-10T19:13:35.167Z,25.33
2022-10-10T19:16:06.933Z,24.17
2022-10-10T19:18:34.362Z,24.17
2022-10-10T19:21:04.092Z,23.60
2022-10-10T19:23:32.501Z,28.02
2022-10-10T19:26:05.198Z,26.30
2022-10-10T19:28:32.961Z,25.38
2022-10-10T19:31:06.714Z,26.30
2022-10-10T19:33:34.627Z,25.75
2022-10-10T19:36:04.477Z,31.35
2022-10-10T19:38:34.473Z,31.50
2022-10-10T19:41:01.802Z,27.08
2022-10-10T19:43:29.408Z,34.28
2022-10-10T19:45:56.555Z,26.70
2022-10-10T19:48:25.149Z,28.45
2022-10-10T19:50:54.194Z,27.30
2022-10-10T19:53:21.297Z,25.25
2022-10-10T19:56:00.063Z,25.98
2022-10-10T19:58:28.090Z,22.88
2022-10-10T20:00:55.347Z,23.30
2022-10-10T20:03:22.386Z,22.70
2022-10-10T20:05:49.734Z,24.92
2022-10-10T20:08:16.861Z,30.13
2022-10-10T20:10:44.764Z,23.60
2022-10-10T20:13:15.207Z,27.77
2022-10-10T20:15:44.396Z,30.17
2022-10-10T20:18:12.877Z,35.10
2022-10-10T20:20:41.991Z,29.27
2022-10-10T20:23:09.683Z,29.80
2022-10-10T20:25:41.710Z,32.92
2022-10-10T20:28:09.557Z,28.38
2022-10-10T20:30:40.590Z,28.58
2022-10-10T20:33:07.553Z,28.70
2022-10-10T20:35:35.213Z,24.33
2022-10-10T20:38:03.414Z,22.17
2022-10-10T20:40:30.862Z,28.70
2022-10-10T20:42:58.027Z,25.77
2022-10-10T20:45:25.030Z,26.83
2022-10-10T20:47:52.007Z,27.67
2022-10-10T20:50:18.996Z,33.40
2022-10-10T20:52:45.912Z,32.03
2022-10-10T20:55:12.896Z,32.03
2022-10-10T20:57:39.918Z,34.17
2022-10-10T21:00:07.580Z,30.90
2022-10-10T21:02:35.228Z,28.58
2022-10-10T21:05:02.232Z,26.08
2022-10-10T21:07:29.711Z,28.98
2022-10-10T21:09:56.941Z,26.85
2022-10-10T21:12:23.906Z,24.48
2022-10-10T21:14:50.853Z,25.50
2022-10-10T21:17:17.769Z,24.15
2022-10-10T21:19:44.946Z,24.70
2022-10-10T21:22:12.026Z,24.27
2022-10-10T21:24:39.711Z,24.23
2022-10-10T21:27:06.720Z,27.67
2022-10-10T21:29:33.846Z,24.77
2022-10-10T21:32:02.387Z,28.58
2022-10-10T21:34:29.312Z,23.67
2022-10-10T21:36:56.886Z,22.80
2022-10-10T21:39:24.873Z,22.10
2022-10-10T21:41:51.812Z,23.83
2022-10-10T21:44:18.659Z,24.85
2022-10-10T21:46:45.705Z,25.90
2022-10-10T21:49:14.610Z,24.10
2022-10-10T21:51:43.587Z,22.75
2022-10-10T21:54:10.811Z,21.30
2022-10-10T21:56:38.813Z,28.85
2022-10-10T21:59:06.160Z,31.35
2022-10-10T22:01:33.511Z,23.35
2022-10-10T22:04:02.109Z,24.40
2022-10-10T22:06:29.511Z,24.95
2022-10-10T22:08:58.752Z,23.55
2022-10-10T22:11:27.246Z,21.50
2022-10-10T22:13:54.204Z,23.77
2022-10-10T22:16:21.333Z,26.63
2022-10-10T22:18:48.517Z,25.70
2022-10-10T22:21:17.422Z,23.50
2022-10-10T22:23:45.440Z,21.52
2022-10-10T22:26:14.682Z,24.98
2022-10-10T22:28:42.279Z,23.63
2022-10-10T22:31:11.209Z,27.17
2022-10-10T22:33:38.421Z,23.20
2022-10-10T22:36:07.173Z,27.20
2022-10-10T22:38:38.794Z,22.05
2022-10-10T22:41:05.732Z,24.52
2022-10-10T22:43:33.194Z,22.10
2022-10-10T22:46:00.287Z,27.80
2022-10-10T22:48:27.781Z,25.08
2022-10-10T22:51:13.499Z,28.40
2022-10-10T22:53:41.438Z,21.05
2022-10-10T22:56:09.895Z,22.13
2022-10-10T22:58:37.589Z,21.95
2022-10-10T23:01:06.321Z,23.35
2022-10-10T23:03:33.393Z,20.85
2022-10-10T23:06:00.432Z,20.17
2022-10-10T23:08:27.443Z,19.63
2022-10-10T23:10:54.333Z,21.15
2022-10-10T23:13:21.683Z,24.25
2022-10-10T23:15:48.667Z,21.42
2022-10-10T23:18:15.635Z,21.75
2022-10-10T23:20:42.598Z,20.33
2022-10-10T23:23:09.750Z,18.83
2022-10-10T23:25:41.484Z,22.70
2022-10-10T23:28:09.145Z,19.23
2022-10-10T23:30:39.904Z,24.42
2022-10-10T23:33:07.089Z,20.38
2022-10-10T23:35:34.929Z,20.90
2022-10-10T23:38:02.160Z,22.33
2022-10-10T23:40:29.336Z,20.83
2022-10-10T23:42:56.338Z,18.83
2022-10-10T23:45:23.282Z,18.60
2022-10-10T23:47:50.309Z,19.58
2022-10-10T23:50:17.392Z,19.25
2022-10-10T23:52:44.331Z,20.48
2022-10-10T23:55:11.260Z,17.80
2022-10-10T23:57:38.251Z,17.60
